Main page
METAR-TAF:

METAR-TAF

Airports :

Robert J. Miller Air Park

Ocean County, New Jersey, United States

latitude: 39-55-39N, longitude: 074-17-33W, elevation: 82 ft

Current weather observation

The report was made 58 minutes ago, at 07:56 UTC
Calm wind
Temperature 25°F
Humidity 100%
Pressure 30.08 in. Hg
Visibility: 10 miles
Clear sky

METAR: KMJX 240756Z AUTO 00000KT 10SM CLR M04/M04 A3008 RMK AO2 SLP192 T10441044 FZRANO

Time: 03:54 (08:54 UTC)


TAF: missing

Weather observations and forecasts of more than 4000 airports (METAR and TAF reports).

The available stations are represented by yellow and red dots on the map.

Hover mouse over dot to see the name of the station.

Then click to see weather observations and forecasts.

To change the map : click on the green buttons with a black cross to zoom in, on the green button with a dash to zoom out, or on the green arrows for adjacent maps.


METAR-TAF: